createdAt,value
2019-03-22T00:01:53.029Z,35.47
2019-03-22T00:06:58.751Z,35.83
2019-03-22T00:12:04.513Z,38.20
2019-03-22T00:17:10.070Z,39.10
2019-03-22T00:22:15.620Z,36.87
2019-03-22T00:27:21.371Z,41.13
2019-03-22T00:32:26.916Z,39.03
2019-03-22T00:37:33.446Z,37.23
2019-03-22T00:42:39.113Z,37.00
2019-03-22T00:47:45.706Z,34.73
2019-03-22T00:52:51.366Z,33.27
2019-03-22T00:57:57.040Z,37.87
2019-03-22T01:03:02.505Z,36.67
2019-03-22T01:08:08.002Z,43.67
2019-03-22T01:13:14.101Z,38.57
2019-03-22T01:18:19.649Z,38.00
2019-03-22T01:23:25.648Z,36.53
2019-03-22T01:28:31.416Z,34.50
2019-03-22T01:33:37.554Z,35.83
2019-03-22T01:38:43.117Z,39.97
2019-03-22T01:43:48.689Z,35.47
2019-03-22T01:48:54.664Z,37.70
2019-03-22T01:54:00.420Z,38.33
2019-03-22T01:59:06.138Z,40.77
2019-03-22T02:04:12.051Z,34.90
2019-03-22T02:09:17.981Z,38.07
2019-03-22T02:14:23.756Z,36.90
2019-03-22T02:19:29.393Z,41.27
2019-03-22T02:24:34.966Z,40.53
2019-03-22T02:29:40.513Z,46.23
2019-03-22T02:34:48.645Z,39.87
2019-03-22T02:39:54.424Z,37.57
2019-03-22T02:45:00.003Z,39.27
2019-03-22T02:50:17.981Z,39.47
2019-03-22T02:55:14.971Z,37.20
2019-03-22T03:00:20.962Z,36.80
2019-03-22T03:05:26.662Z,39.33
2019-03-22T03:10:32.296Z,38.40
2019-03-22T03:15:37.887Z,38.93
2019-03-22T03:20:43.616Z,35.87
2019-03-22T03:25:49.132Z,40.13
2019-03-22T03:30:54.769Z,48.73
2019-03-22T03:36:00.411Z,41.47
2019-03-22T03:41:07.266Z,47.83
2019-03-22T03:46:12.896Z,42.10
2019-03-22T03:51:18.454Z,46.60
2019-03-22T03:56:24.202Z,44.83
2019-03-22T04:01:29.728Z,44.30
2019-03-22T04:06:35.531Z,41.00
2019-03-22T04:11:41.331Z,43.23
2019-03-22T04:16:46.948Z,39.80
2019-03-22T04:21:52.751Z,41.17
2019-03-22T04:26:58.310Z,41.03
2019-03-22T04:32:04.527Z,39.40
2019-03-22T04:37:10.435Z,37.67
2019-03-22T04:42:15.973Z,37.53
2019-03-22T04:47:22.612Z,46.10
2019-03-22T04:52:28.651Z,48.43
2019-03-22T04:57:34.725Z,46.23
2019-03-22T05:02:41.022Z,39.63
2019-03-22T05:07:46.976Z,41.67
2019-03-22T05:12:53.375Z,41.97
2019-03-22T05:17:59.249Z,45.93
2019-03-22T05:23:05.457Z,38.13
2019-03-22T05:28:12.944Z,41.43
2019-03-22T05:33:18.811Z,44.60
2019-03-22T05:38:24.343Z,48.20
2019-03-22T05:43:30.109Z,44.73
2019-03-22T05:48:35.633Z,41.67
2019-03-22T05:53:41.573Z,38.20
2019-03-22T05:58:48.541Z,37.33
2019-03-22T06:03:54.246Z,41.80
2019-03-22T06:09:00.005Z,41.40
2019-03-22T06:14:05.775Z,40.80
2019-03-22T06:19:11.932Z,42.33
2019-03-22T06:24:17.556Z,43.97
2019-03-22T06:29:23.272Z,38.23
2019-03-22T06:34:29.076Z,39.30
2019-03-22T06:39:36.090Z,37.23
2019-03-22T06:44:42.262Z,35.83
2019-03-22T06:49:47.866Z,43.93
2019-03-22T06:54:53.636Z,39.70
2019-03-22T07:00:06.619Z,41.60
2019-03-22T07:05:07.272Z,44.17
2019-03-22T07:10:13.119Z,48.53
2019-03-22T07:15:18.918Z,41.43
2019-03-22T07:20:25.490Z,40.80
2019-03-22T07:25:31.163Z,40.00
2019-03-22T07:30:37.242Z,37.53
2019-03-22T07:35:43.278Z,37.17
2019-03-22T07:40:48.894Z,41.50
2019-03-22T07:45:54.726Z,41.40
2019-03-22T07:51:00.387Z,40.53
2019-03-22T07:56:06.568Z,43.53
2019-03-22T08:01:12.304Z,39.83
2019-03-22T08:06:18.094Z,45.77
2019-03-22T08:11:24.894Z,41.03
2019-03-22T08:16:30.965Z,42.93
2019-03-22T08:21:36.568Z,43.73
2019-03-22T08:26:42.246Z,45.57
2019-03-22T08:31:48.316Z,52.80
2019-03-22T08:36:54.402Z,48.83
2019-03-22T08:42:00.311Z,49.83
2019-03-22T08:47:07.443Z,46.57
2019-03-22T08:52:13.207Z,44.60
2019-03-22T08:57:18.991Z,47.83
2019-03-22T09:02:25.606Z,48.60
2019-03-22T09:07:31.680Z,45.50
2019-03-22T09:12:37.970Z,42.27
2019-03-22T09:17:44.133Z,37.13
2019-03-22T09:22:50.315Z,39.30
2019-03-22T09:27:57.090Z,40.50
2019-03-22T09:33:02.763Z,35.83
2019-03-22T09:38:13.134Z,34.23
2019-03-22T09:43:17.962Z,35.87
2019-03-22T09:48:23.688Z,34.37
2019-03-22T09:53:30.569Z,37.70
2019-03-22T09:58:36.508Z,35.80
2019-03-22T10:03:42.732Z,34.33
2019-03-22T10:08:49.378Z,37.85
2019-03-22T10:13:58.124Z,35.50
2019-03-22T10:19:04.055Z,38.05
2019-03-22T10:24:12.762Z,39.18
2019-03-22T10:29:19.288Z,36.63
2019-03-22T10:34:30.061Z,38.10
2019-03-22T10:39:35.801Z,37.33
2019-03-22T10:44:41.876Z,37.35
2019-03-22T10:49:47.674Z,38.08
2019-03-22T10:54:53.508Z,41.00
2019-03-22T10:59:59.436Z,36.88
2019-03-22T11:05:15.932Z,39.80
2019-03-22T11:10:21.704Z,42.58
2019-03-22T14:08:13.688Z,34.00
2019-03-22T14:13:19.425Z,33.73
2019-03-22T14:18:25.316Z,36.45
2019-03-22T14:23:31.040Z,30.52
2019-03-22T14:28:36.796Z,29.67
2019-03-22T14:33:42.919Z,31.05
2019-03-22T14:38:49.173Z,31.27
2019-03-22T14:43:54.833Z,31.48
2019-03-22T14:49:02.430Z,29.90
2019-03-22T14:54:11.578Z,31.23
2019-03-22T14:59:17.444Z,26.55
2019-03-22T15:04:32.022Z,31.17
2019-03-22T15:09:38.488Z,27.17
2019-03-22T15:15:03.327Z,29.05
2019-03-22T15:20:27.805Z,31.07
2019-03-22T15:25:52.904Z,35.58
2019-03-22T15:31:16.597Z,35.43
2019-03-22T15:36:37.400Z,36.28
2019-03-22T15:41:46.709Z,37.00
2019-03-22T15:47:11.391Z,33.38
2019-03-22T15:52:17.260Z,35.52
2019-03-22T15:57:23.253Z,34.13
2019-03-22T16:02:28.956Z,35.88
2019-03-22T16:07:34.833Z,37.95
2019-03-22T16:12:41.081Z,33.98
2019-03-22T16:17:47.783Z,33.35
2019-03-22T16:22:55.088Z,41.20
2019-03-22T16:28:00.769Z,39.58
2019-03-22T16:33:08.714Z,31.80
2019-03-22T16:38:14.508Z,30.23
2019-03-22T16:43:20.094Z,31.82
2019-03-22T16:48:26.065Z,29.82
2019-03-22T16:53:31.860Z,32.45
2019-03-22T16:58:37.828Z,29.27
2019-03-22T17:03:43.771Z,33.80
2019-03-22T17:08:49.588Z,33.60
2019-03-22T17:13:55.197Z,31.25
2019-03-22T17:19:00.766Z,30.37
2019-03-22T17:24:06.672Z,33.10
2019-03-22T17:29:12.296Z,33.40
2019-03-22T17:34:18.292Z,33.20
2019-03-22T17:39:24.012Z,34.00
2019-03-22T17:44:29.798Z,40.67
2019-03-22T17:49:35.876Z,40.08
2019-03-22T17:54:41.497Z,41.75
2019-03-22T17:59:47.079Z,38.97
2019-03-22T18:04:52.980Z,41.87
2019-03-22T18:09:59.184Z,41.37
2019-03-22T18:15:05.524Z,43.70
2019-03-22T18:20:11.543Z,46.80
2019-03-22T18:25:17.204Z,46.00
2019-03-22T18:30:24.118Z,45.33
2019-03-22T18:35:31.482Z,44.50
2019-03-22T18:40:37.144Z,46.37
2019-03-22T18:45:43.054Z,46.60
2019-03-22T18:50:56.389Z,47.30
2019-03-22T18:55:55.884Z,48.05
2019-03-22T19:01:01.807Z,49.90
2019-03-22T19:06:08.566Z,47.98
2019-03-22T19:11:21.970Z,48.95
2019-03-22T19:16:27.564Z,50.60
2019-03-22T19:21:33.130Z,47.90
2019-03-22T19:26:38.800Z,51.00
2019-03-22T19:31:47.076Z,50.73
2019-03-22T19:36:55.702Z,51.33
2019-03-22T19:42:01.328Z,51.70
2019-03-22T19:47:06.931Z,53.63
2019-03-22T19:52:12.739Z,53.33
2019-03-22T19:57:18.641Z,46.50
2019-03-22T20:02:24.541Z,47.87
2019-03-22T20:07:30.160Z,51.47
2019-03-22T20:12:35.732Z,48.67
2019-03-22T20:17:41.431Z,47.97
2019-03-22T20:22:47.333Z,49.37
2019-03-22T20:27:55.130Z,50.43
2019-03-22T20:33:00.922Z,45.97
2019-03-22T20:38:06.930Z,47.33
2019-03-22T20:43:12.812Z,47.10
2019-03-22T20:48:18.452Z,45.57
2019-03-22T20:53:24.224Z,45.93
2019-03-22T20:58:29.948Z,46.17
2019-03-22T21:03:35.512Z,46.80
2019-03-22T21:08:41.305Z,44.13
2019-03-22T21:13:46.958Z,44.93
2019-03-22T21:18:52.614Z,45.93
2019-03-22T21:23:58.369Z,47.17
2019-03-22T21:29:04.492Z,47.43
2019-03-22T21:34:10.290Z,48.07
2019-03-22T21:39:17.230Z,46.87
2019-03-22T21:44:23.511Z,48.67
2019-03-22T21:49:30.135Z,48.80
2019-03-22T21:54:35.916Z,47.73
2019-03-22T21:59:41.740Z,48.80
2019-03-22T22:04:47.449Z,48.40
2019-03-22T22:09:53.108Z,48.03
2019-03-22T22:14:58.604Z,49.83
2019-03-22T22:20:04.188Z,45.47
2019-03-22T22:25:14.854Z,45.97
2019-03-22T22:30:20.501Z,44.63
2019-03-22T22:35:26.212Z,45.93
2019-03-22T22:40:31.954Z,44.67
2019-03-22T22:45:37.808Z,45.23
2019-03-22T22:50:43.443Z,44.57
2019-03-22T22:55:49.333Z,45.07
2019-03-22T23:00:54.924Z,47.33
2019-03-22T23:06:09.432Z,46.43
2019-03-22T23:11:10.339Z,43.67
2019-03-22T23:16:15.907Z,44.43
2019-03-22T23:21:21.635Z,46.40
2019-03-22T23:26:27.583Z,46.13
2019-03-22T23:31:33.831Z,44.43
2019-03-22T23:36:39.698Z,47.60
2019-03-22T23:41:45.290Z,48.73
2019-03-22T23:46:51.039Z,44.90
2019-03-22T23:51:56.714Z,47.27
2019-03-22T23:57:02.435Z,45.83
